Aérodrome :
LOGIN :

S'inscrire | Disclaimer

   EN    FR    IT 

 










Légende :    VFR   VFR Marginal   IFR   IFR Intensif   IFR Très Intensif
Visi : 
Plafond : 
>= 8 km
>= 3000ft
5 à 8 km
1000 à 3000 ft
1500m à 5 km
500 à 1000 ft
800 à 1500m
200 à 500 ft
< 800m
< 200 ft
Symboles :   Orages  Brouillard  Fortes neiges  Fortes précipitations  Vent > 20 kt
SIGMETs :   Divers  Orages  Givrage  Turbulence  Onde Orograph.  Cendres Volcan.







- Altitude de l'aérodrome : 13 ft
- Code IATA : LYX
- Voir les cartes d'approche


EGMD - Lydd

DERNIER METAR :
  • 140350Z AUTO 25017KT 9999 NCD 04/01 Q0994

METARs EXPIRÉS :
  • 140320Z AUTO 26016KT 9999 NCD 04/01 Q0994
  • 140250Z AUTO 25012KT 9999 NCD 04/00 Q0994
  • 140220Z AUTO 27016KT 9999 NCD 04/00 Q0994
  • 140150Z AUTO 27018KT 9999 NCD 04/00 Q0994
  • 140120Z AUTO 27023KT 9999 NCD 05/00 Q0993

TAF TAF EGMD
Valide du 14 à 03h jusqu'au 14 à 12h UTC


140155Z 1403/1412 26014KT 9999 FEW045
TEMPO 1403/1410 27020G30KT
ATIS : +44 1797 322 422
Pas de NOTAMs connus pour ce terrain.
1 SIGMET publié pour la FIR London (EGTT) :
 
Turbulence forte
EGTT SIGMET 01 VALID 140300/140700 EGRR
EGTT LONDON FIR SEV TURB FCST WI N5000 W00015 - N5000 W00200 - N4850 W00800 - N5100 W00800 - N5220 W00530 - N5330 W00530 - N5300 W00330 - N5100 W00330 - N5040 E00128 - N5000 W00015 SFC/FL060 STNR WKN=



MET'MAP, la Météo Aéronautique d'un coup d'oeil ! - Copyright ORBIFLY Décembre 2007 - Disclaimer

ORBIFLY MET'MAP TEAM :

Programmation & Développement : Alexandra Zaïnal
Conception & Développement : Baudouin d'Aumeries
Co-Programmation & Développement : Marc-Olivier Méhu
Soutien technique & logistique : Manuel Goepfert

Contact : metmap@orbifly.com




SOURCES & CREDITS :

   NOAA